Time;durP1;ratioP1;P1;durP2;ratioP2;P2;SDS_P1;SDS_P2;PMS_P1;PMS_P2;Temp;Humidity;BMP_temperature;BMP_pressure;BME280_temperature;BME280_humidity;BME280_pressure;Samples;Min_cycle;Max_cycle;Signal;HPM_P1;HPM_P2
2022/03/06 00:00:42;;;;;;;40.08;12.90;;;-1.00;99.90;;;;;;5027144;28;20648;-69
2022/03/06 00:03:08;;;;;;;31.65;11.00;;;-1.00;99.90;;;;;;5027451;28;20536;-71
2022/03/06 00:05:36;;;;;;;34.13;11.50;;;-1.00;99.90;;;;;;5028014;28;20042;-67
2022/03/06 00:08:02;;;;;;;31.40;10.40;;;-1.00;99.90;;;;;;5026202;28;20478;-69
2022/03/06 00:10:29;;;;;;;36.40;13.20;;;-1.10;99.90;;;;;;5025146;28;20087;-71
2022/03/06 00:12:55;;;;;;;35.30;12.02;;;-1.10;99.90;;;;;;5025069;28;20110;-72
2022/03/06 00:15:22;;;;;;;30.33;10.88;;;-1.20;99.90;;;;;;5023726;28;20041;-73
2022/03/06 00:17:49;;;;;;;35.17;11.05;;;-1.20;99.90;;;;;;5022489;28;20025;-71
2022/03/06 00:20:15;;;;;;;32.35;10.50;;;-1.30;99.90;;;;;;5023245;28;20025;-72
2022/03/06 00:22:42;;;;;;;34.42;11.00;;;-1.30;99.90;;;;;;5028331;28;20037;-72
2022/03/06 00:25:09;;;;;;;32.20;10.52;;;-1.30;99.90;;;;;;5031944;28;20053;-70
2022/03/06 00:27:35;;;;;;;33.90;12.15;;;-1.30;99.90;;;;;;5031036;28;20037;-66
2022/03/06 00:30:01;;;;;;;34.95;11.18;;;-1.40;99.90;;;;;;5028354;28;20029;-72
2022/03/06 00:32:28;;;;;;;31.65;10.80;;;-1.40;99.90;;;;;;5026608;28;20026;-69
2022/03/06 00:34:54;;;;;;;42.20;12.63;;;-1.40;99.90;;;;;;5022593;28;20175;-73
2022/03/06 00:37:20;;;;;;;32.50;10.88;;;-1.40;99.90;;;;;;5014074;28;20052;-73
2022/03/06 00:39:46;;;;;;;34.63;11.68;;;-1.40;99.90;;;;;;5034646;28;20017;-73
2022/03/06 00:42:12;;;;;;;35.92;11.32;;;-1.40;99.90;;;;;;5014864;28;20039;-73
2022/03/06 00:44:38;;;;;;;33.65;11.05;;;-1.50;99.90;;;;;;5021139;28;20044;-66
2022/03/06 00:47:04;;;;;;;34.00;11.20;;;-1.50;99.90;;;;;;5026223;28;20116;-72
2022/03/06 00:49:30;;;;;;;29.73;10.80;;;-1.60;99.90;;;;;;5017841;28;20037;-73
2022/03/06 00:51:57;;;;;;;34.83;11.80;;;-1.60;99.90;;;;;;5020704;28;20116;-72
2022/03/06 00:54:22;;;;;;;39.17;13.38;;;-1.70;99.90;;;;;;5013533;28;20080;-72
2022/03/06 00:56:48;;;;;;;35.80;12.98;;;-1.70;99.90;;;;;;5032237;28;20464;-72
2022/03/06 00:59:14;;;;;;;34.90;12.52;;;-1.70;99.90;;;;;;5021281;28;20025;-72
2022/03/06 01:01:40;;;;;;;38.72;12.80;;;-1.70;99.90;;;;;;5018798;28;20056;-66
2022/03/06 01:04:06;;;;;;;35.67;13.02;;;-1.80;99.90;;;;;;5012030;28;20058;-72
2022/03/06 01:06:32;;;;;;;38.88;13.45;;;-1.80;99.90;;;;;;5015833;28;20038;-70
2022/03/06 01:08:58;;;;;;;35.13;12.57;;;-1.90;99.90;;;;;;5030706;28;20033;-71
2022/03/06 01:11:24;;;;;;;35.70;12.13;;;-1.90;99.90;;;;;;5024212;28;20057;-71
2022/03/06 01:13:50;;;;;;;33.78;12.45;;;-1.90;99.90;;;;;;5027463;28;20466;-71
2022/03/06 01:16:16;;;;;;;36.72;11.98;;;-1.90;99.90;;;;;;5013595;28;20042;-72
2022/03/06 01:18:42;;;;;;;34.05;11.13;;;-2.00;99.90;;;;;;5020467;28;20765;-69
2022/03/06 01:21:08;;;;;;;31.83;12.13;;;-2.00;99.90;;;;;;5024274;28;20038;-71
2022/03/06 01:23:35;;;;;;;34.78;12.15;;;-2.10;99.90;;;;;;5017924;28;20142;-72
2022/03/06 01:26:01;;;;;;;31.73;11.00;;;-2.00;99.90;;;;;;5009565;28;20051;-72
2022/03/06 01:28:27;;;;;;;35.67;12.38;;;-2.00;99.90;;;;;;5021900;28;20140;-72
2022/03/06 01:30:53;;;;;;;34.05;11.40;;;-2.00;99.90;;;;;;5017165;28;20188;-73
2022/03/06 01:33:19;;;;;;;41.60;12.63;;;-2.00;99.90;;;;;;5026456;28;20055;-72
2022/03/06 01:35:44;;;;;;;37.95;11.73;;;-2.10;99.90;;;;;;5026109;28;20037;-70
2022/03/06 01:38:10;;;;;;;37.60;12.68;;;-2.20;99.90;;;;;;5029036;28;20041;-72
2022/03/06 01:40:36;;;;;;;35.55;11.32;;;-2.30;99.90;;;;;;5022320;28;20080;-72
2022/03/06 01:43:01;;;;;;;29.98;10.38;;;-2.30;99.90;;;;;;5035031;28;20018;-72
2022/03/06 01:45:27;;;;;;;32.25;11.50;;;-2.30;99.90;;;;;;5018299;28;20084;-72
2022/03/06 01:47:54;;;;;;;28.40;11.07;;;-2.30;99.90;;;;;;5030981;28;20214;-72
2022/03/06 01:50:39;;;;;;;31.33;10.38;;;-2.40;99.90;;;;;;5023726;28;20033;-72
2022/03/06 01:53:08;;;;;;;36.53;10.93;;;-2.30;99.90;;;;;;5027883;28;20033;-72
2022/03/06 01:55:35;;;;;;;32.92;10.90;;;-2.40;99.90;;;;;;5027395;28;20038;-72
2022/03/06 01:58:04;;;;;;;30.92;10.75;;;-2.40;99.90;;;;;;5028968;28;20466;-72
2022/03/06 02:00:33;;;;;;;32.20;10.77;;;-2.40;99.90;;;;;;5029415;28;20386;-72
2022/03/06 02:02:59;;;;;;;35.92;11.55;;;-2.40;99.90;;;;;;5023190;28;20029;-72
2022/03/06 02:05:25;;;;;;;27.40;9.93;;;-2.40;99.90;;;;;;5023590;28;20564;-72
2022/03/06 02:07:51;;;;;;;34.92;11.65;;;-2.50;99.90;;;;;;5017731;28;20033;-72
2022/03/06 02:10:17;;;;;;;34.13;10.93;;;-2.50;99.90;;;;;;5024605;28;20033;-71
2022/03/06 02:12:44;;;;;;;37.72;11.48;;;-2.50;99.90;;;;;;5014227;28;20045;-66
2022/03/06 02:15:13;;;;;;;33.90;11.05;;;-2.50;99.90;;;;;;5015337;28;20137;-72
2022/03/06 02:17:39;;;;;;;35.70;12.18;;;-2.60;99.90;;;;;;5041024;28;20064;-70
2022/03/06 02:20:08;;;;;;;33.97;10.40;;;-2.60;99.90;;;;;;5022689;28;20061;-72
2022/03/06 02:22:36;;;;;;;35.75;11.00;;;-2.70;99.90;;;;;;5030503;28;20049;-70
2022/03/06 02:25:24;;;;;;;33.75;11.20;;;-2.70;99.90;;;;;;5027782;28;20219;-72
2022/03/06 02:27:52;;;;;;;33.30;10.88;;;-2.80;99.90;;;;;;5023539;28;20112;-72
2022/03/06 02:30:20;;;;;;;34.05;10.77;;;-2.70;99.90;;;;;;5027530;28;20092;-70
2022/03/06 02:32:48;;;;;;;32.35;10.32;;;-2.70;99.90;;;;;;5017297;28;20478;-66
2022/03/06 02:35:15;;;;;;;31.02;10.50;;;-2.80;99.90;;;;;;5017801;28;20065;-72
2022/03/06 02:37:41;;;;;;;35.72;10.23;;;-2.90;99.90;;;;;;5029629;28;20124;-71
2022/03/06 02:40:09;;;;;;;35.58;11.55;;;-2.90;99.90;;;;;;5029995;28;20529;-70
2022/03/06 02:42:38;;;;;;;31.58;10.98;;;-3.00;99.90;;;;;;5026668;28;20029;-72
2022/03/06 02:45:14;;;;;;;30.33;9.90;;;-3.00;99.90;;;;;;5020274;28;20021;-71
2022/03/06 02:47:41;;;;;;;29.17;10.05;;;-3.10;99.90;;;;;;5026744;28;20083;-72
2022/03/06 02:50:09;;;;;;;31.92;10.88;;;-3.10;99.90;;;;;;5025493;28;20178;-72
2022/03/06 02:52:35;;;;;;;32.67;10.32;;;-3.00;99.90;;;;;;5027722;28;20071;-70
2022/03/06 02:55:02;;;;;;;37.30;10.68;;;-3.00;99.90;;;;;;5024957;28;20057;-72
2022/03/06 02:57:27;;;;;;;33.55;10.93;;;-3.00;99.90;;;;;;5020699;28;20034;-71
2022/03/06 02:59:53;;;;;;;33.78;11.02;;;-3.10;99.90;;;;;;5023303;28;20025;-71
2022/03/06 03:02:19;;;;;;;33.08;11.07;;;-3.20;99.90;;;;;;5016873;28;20041;-71
2022/03/06 03:04:44;;;;;;;32.72;10.95;;;-3.30;99.90;;;;;;5017667;28;20025;-66
2022/03/06 03:07:10;;;;;;;35.30;11.43;;;-3.30;99.90;;;;;;5025168;28;20382;-70
2022/03/06 03:09:36;;;;;;;29.42;10.73;;;-3.40;99.90;;;;;;5021685;28;20071;-72
2022/03/06 03:12:04;;;;;;;31.52;10.30;;;-3.40;99.90;;;;;;5025260;28;20030;-71
2022/03/06 03:14:32;;;;;;;31.40;10.50;;;-3.30;99.90;;;;;;5026737;28;20026;-72
2022/03/06 03:17:01;;;;;;;35.75;11.65;;;-3.40;99.90;;;;;;5036852;28;20048;-71
2022/03/06 03:19:27;;;;;;;34.95;11.93;;;-3.40;99.90;;;;;;5027044;28;20101;-70
2022/03/06 03:21:53;;;;;;;35.40;10.85;;;-3.40;99.90;;;;;;5026272;28;20116;-71
2022/03/06 03:24:18;;;;;;;33.92;10.75;;;-3.40;99.90;;;;;;5022195;28;20090;-70
2022/03/06 03:26:44;;;;;;;31.10;10.27;;;-3.40;99.90;;;;;;5027223;28;20045;-72
2022/03/06 03:29:10;;;;;;;34.85;11.48;;;-3.40;99.90;;;;;;5027096;28;20110;-72
2022/03/06 03:31:35;;;;;;;36.70;11.60;;;-3.40;99.90;;;;;;5052162;28;20481;-71
2022/03/06 03:34:01;;;;;;;38.47;11.18;;;-3.40;99.90;;;;;;5031575;28;20022;-71
2022/03/06 03:36:27;;;;;;;32.60;11.00;;;-3.50;99.90;;;;;;5020900;28;20038;-72
2022/03/06 03:38:53;;;;;;;32.55;10.77;;;-3.50;99.90;;;;;;5023865;28;20079;-69
2022/03/06 03:41:19;;;;;;;33.88;11.10;;;-3.50;99.90;;;;;;5014557;28;20026;-72
2022/03/06 03:43:45;;;;;;;36.63;11.75;;;-3.50;99.90;;;;;;5025877;28;20448;-72
2022/03/06 03:46:10;;;;;;;33.70;11.57;;;-3.50;99.90;;;;;;5025939;28;20113;-71
2022/03/06 03:48:36;;;;;;;34.55;10.85;;;-3.50;99.90;;;;;;5026491;28;20474;-72
2022/03/06 03:51:02;;;;;;;34.88;10.93;;;-3.60;99.90;;;;;;5027710;28;20079;-70
2022/03/06 03:53:28;;;;;;;36.72;11.13;;;-3.70;99.90;;;;;;5020262;28;20030;-71
2022/03/06 03:55:53;;;;;;;43.00;12.10;;;-3.70;99.90;;;;;;5012747;28;20084;-71
2022/03/06 03:58:20;;;;;;;34.42;10.27;;;-3.80;99.90;;;;;;5014658;28;20034;-71
2022/03/06 04:00:47;;;;;;;34.67;11.23;;;-3.80;99.90;;;;;;5028170;28;20474;-71
2022/03/06 04:03:13;;;;;;;36.38;10.13;;;-3.80;99.90;;;;;;5023276;28;20025;-71
2022/03/06 04:05:38;;;;;;;33.88;11.27;;;-3.80;99.90;;;;;;5022810;28;20084;-72
2022/03/06 04:08:04;;;;;;;31.48;11.15;;;-3.70;99.90;;;;;;5016416;28;20100;-71
2022/03/06 04:10:30;;;;;;;34.20;10.95;;;-3.80;99.90;;;;;;5023385;28;20061;-70
2022/03/06 04:12:56;;;;;;;35.88;10.40;;;-3.90;99.90;;;;;;5022070;28;20063;-72
2022/03/06 04:15:22;;;;;;;37.72;11.52;;;-4.00;99.90;;;;;;5031835;28;20037;-71
2022/03/06 04:17:47;;;;;;;32.55;10.52;;;-4.00;99.90;;;;;;5023984;28;20036;-68
2022/03/06 04:20:13;;;;;;;37.20;11.02;;;-4.10;99.90;;;;;;5023147;28;20048;-71
2022/03/06 04:22:39;;;;;;;39.13;11.57;;;-4.10;99.90;;;;;;5013138;28;20519;-71
2022/03/06 04:25:05;;;;;;;33.72;10.77;;;-4.10;99.90;;;;;;5014473;28;20104;-71
2022/03/06 04:27:30;;;;;;;39.85;11.18;;;-4.20;99.90;;;;;;5017062;28;20052;-71
2022/03/06 04:29:56;;;;;;;40.30;11.98;;;-4.20;99.90;;;;;;5013821;28;20030;-72
2022/03/06 04:32:22;;;;;;;37.47;11.82;;;-4.20;99.90;;;;;;5023232;28;20113;-72
2022/03/06 04:34:48;;;;;;;34.67;11.95;;;-4.20;99.90;;;;;;5024503;28;20034;-71
2022/03/06 04:37:14;;;;;;;40.97;11.70;;;-4.20;99.90;;;;;;5015602;28;20046;-71
2022/03/06 04:39:40;;;;;;;40.85;11.40;;;-4.20;99.90;;;;;;5017337;28;20088;-71
2022/03/06 04:42:06;;;;;;;37.47;11.20;;;-4.30;99.90;;;;;;5019115;28;20427;-69
2022/03/06 04:44:32;;;;;;;37.25;11.43;;;-4.30;99.90;;;;;;5016122;28;20030;-71
2022/03/06 04:46:57;;;;;;;37.58;11.93;;;-4.30;99.90;;;;;;5027812;28;20037;-71
2022/03/06 04:49:23;;;;;;;42.58;11.88;;;-4.30;99.90;;;;;;5020023;28;20135;-72
2022/03/06 04:51:49;;;;;;;41.03;11.88;;;-4.30;99.90;;;;;;5026912;28;20025;-70
2022/03/06 04:54:14;;;;;;;41.10;12.45;;;-4.30;99.90;;;;;;5026032;28;20037;-72
2022/03/06 04:56:40;;;;;;;37.47;11.38;;;-4.40;99.90;;;;;;5018942;28;20395;-71
2022/03/06 04:59:06;;;;;;;34.92;12.07;;;-4.40;99.90;;;;;;5023220;28;20028;-72
2022/03/06 05:01:31;;;;;;;39.03;12.27;;;-4.40;99.90;;;;;;5024000;28;20017;-72
2022/03/06 05:03:57;;;;;;;45.60;12.15;;;-4.40;99.90;;;;;;5018157;28;20057;-71
2022/03/06 05:06:23;;;;;;;42.30;12.60;;;-4.30;99.90;;;;;;5021243;28;20437;-72
2022/03/06 05:08:49;;;;;;;42.80;11.68;;;-4.40;99.90;;;;;;5020311;28;20037;-72
2022/03/06 05:11:15;;;;;;;40.83;11.68;;;-4.40;99.90;;;;;;5021719;28;20030;-72
2022/03/06 05:13:40;;;;;;;41.65;12.30;;;-4.40;99.90;;;;;;5055009;28;20033;-70
2022/03/06 05:16:06;;;;;;;36.03;11.20;;;-4.40;99.90;;;;;;5025936;28;20375;-72
2022/03/06 05:18:32;;;;;;;36.47;11.57;;;-4.50;99.90;;;;;;5030618;28;20034;-70
2022/03/06 05:20:57;;;;;;;39.00;11.63;;;-4.50;99.90;;;;;;5014082;28;20165;-70
2022/03/06 05:23:23;;;;;;;39.08;11.48;;;-4.60;99.90;;;;;;5021180;28;20487;-71
2022/03/06 05:25:48;;;;;;;37.75;12.82;;;-4.60;99.90;;;;;;5023041;28;20037;-72
2022/03/06 05:28:15;;;;;;;43.05;11.65;;;-4.60;99.90;;;;;;5031482;28;20033;-73
2022/03/06 05:30:41;;;;;;;40.35;12.23;;;-4.60;99.90;;;;;;5030367;28;20438;-71
2022/03/06 05:33:07;;;;;;;36.30;12.13;;;-4.60;99.90;;;;;;5014035;28;20052;-72
2022/03/06 05:35:33;;;;;;;35.60;11.82;;;-4.50;99.90;;;;;;5018901;28;20502;-72
2022/03/06 05:37:58;;;;;;;38.50;12.32;;;-4.50;99.90;;;;;;5030860;28;20022;-72
2022/03/06 05:40:24;;;;;;;41.08;11.95;;;-4.60;99.90;;;;;;5030957;28;20191;-72
2022/03/06 05:42:50;;;;;;;48.45;12.38;;;-4.70;99.90;;;;;;5032582;28;20040;-72
2022/03/06 05:45:16;;;;;;;36.30;11.70;;;-4.70;99.90;;;;;;5031554;28;20644;-72
2022/03/06 05:47:43;;;;;;;36.35;11.68;;;-4.80;99.90;;;;;;5030900;28;20489;-71
2022/03/06 05:50:09;;;;;;;32.55;11.45;;;-4.80;99.90;;;;;;5029036;28;20449;-71
2022/03/06 05:52:35;;;;;;;35.15;10.63;;;-4.80;99.90;;;;;;5031993;28;20039;-71
2022/03/06 05:55:03;;;;;;;33.80;10.13;;;-4.70;99.90;;;;;;5026717;28;20092;-71
2022/03/06 05:57:29;;;;;;;37.25;10.90;;;-4.70;99.90;;;;;;5022790;28;20439;-73
2022/03/06 05:59:55;;;;;;;38.90;10.38;;;-4.70;99.90;;;;;;5031361;28;20060;-67
2022/03/06 06:02:21;;;;;;;31.80;10.63;;;-4.70;99.90;;;;;;5030175;28;20110;-73
2022/03/06 06:04:48;;;;;;;38.60;10.95;;;-4.70;99.90;;;;;;5023811;28;20026;-70
2022/03/06 06:07:14;;;;;;;33.75;10.85;;;-4.70;99.90;;;;;;5013581;28;20042;-70
2022/03/06 06:09:39;;;;;;;35.65;11.73;;;-4.70;99.90;;;;;;5029103;28;20026;-71
2022/03/06 06:12:06;;;;;;;36.33;10.82;;;-4.80;99.90;;;;;;5011767;28;20335;-71
2022/03/06 06:14:32;;;;;;;42.70;11.80;;;-4.70;99.90;;;;;;5018498;28;20022;-72
2022/03/06 06:16:58;;;;;;;36.05;10.15;;;-4.70;99.90;;;;;;5030540;28;20033;-67
2022/03/06 06:19:23;;;;;;;34.63;11.00;;;-4.60;99.90;;;;;;5012650;28;20394;-71
2022/03/06 06:21:49;;;;;;;33.33;10.48;;;-4.60;99.90;;;;;;5011637;28;20107;-72
2022/03/06 06:24:15;;;;;;;38.35;12.13;;;-4.50;99.90;;;;;;5018125;28;20045;-72
2022/03/06 06:26:47;;;;;;;40.20;12.02;;;-4.40;99.90;;;;;;5027324;28;20033;-72
2022/03/06 06:29:13;;;;;;;41.60;11.45;;;-4.30;99.90;;;;;;5023096;28;20033;-72
2022/03/06 06:31:40;;;;;;;40.53;11.45;;;-4.30;99.90;;;;;;5012062;28;20049;-72
2022/03/06 06:34:06;;;;;;;37.25;12.00;;;-4.20;99.90;;;;;;5010904;28;20026;-72
2022/03/06 06:36:32;;;;;;;36.88;11.63;;;-4.10;99.90;;;;;;5019062;28;20474;-72
2022/03/06 06:38:57;;;;;;;38.58;11.35;;;-4.10;99.90;;;;;;5027562;28;20508;-67
2022/03/06 06:41:23;;;;;;;35.60;10.88;;;-4.00;99.90;;;;;;5021311;28;20061;-72
2022/03/06 06:43:49;;;;;;;36.55;11.75;;;-4.00;99.90;;;;;;5023715;28;20052;-71
2022/03/06 06:46:15;;;;;;;31.23;10.77;;;-4.00;99.90;;;;;;5029866;28;20456;-72
2022/03/06 06:48:40;;;;;;;38.17;12.85;;;-3.90;99.90;;;;;;5030540;28;20033;-71
2022/03/06 06:51:08;;;;;;;39.45;11.52;;;-3.80;99.90;;;;;;5025519;28;20095;-72
2022/03/06 06:53:34;;;;;;;36.33;11.35;;;-3.80;99.90;;;;;;5027799;28;20034;-72
2022/03/06 06:56:00;;;;;;;41.00;11.98;;;-3.80;99.90;;;;;;5028695;28;20407;-64
2022/03/06 06:58:26;;;;;;;37.05;12.18;;;-3.80;99.90;;;;;;5029010;28;20033;-71
2022/03/06 07:00:51;;;;;;;41.72;11.48;;;-3.80;99.90;;;;;;5032311;28;20030;-70
2022/03/06 07:03:17;;;;;;;37.70;12.30;;;-3.80;99.90;;;;;;5029747;28;20033;-70
2022/03/06 07:05:45;;;;;;;41.55;12.38;;;-3.80;99.90;;;;;;5028984;28;20478;-71
2022/03/06 07:08:14;;;;;;;39.92;12.73;;;-3.70;99.90;;;;;;5030123;28;20033;-71
2022/03/06 07:10:39;;;;;;;43.13;12.25;;;-3.70;99.90;;;;;;5029936;28;20026;-72
2022/03/06 07:13:05;;;;;;;38.50;11.95;;;-3.60;99.90;;;;;;5028974;28;20528;-71
2022/03/06 07:15:32;;;;;;;40.30;12.52;;;-3.60;99.90;;;;;;5027300;28;20056;-72
2022/03/06 07:18:00;;;;;;;36.33;11.85;;;-3.50;99.90;;;;;;5009303;28;20033;-69
2022/03/06 07:20:28;;;;;;;39.47;12.73;;;-3.40;99.90;;;;;;5024941;28;20029;-73
2022/03/06 07:22:53;;;;;;;39.58;12.13;;;-3.30;99.90;;;;;;5030312;28;20053;-71
2022/03/06 07:25:19;;;;;;;36.90;12.60;;;-3.20;99.90;;;;;;5029311;28;20037;-72
2022/03/06 07:27:45;;;;;;;41.60;12.38;;;-3.00;99.90;;;;;;5029809;28;20105;-72
2022/03/06 07:30:12;;;;;;;40.47;13.88;;;-2.90;99.90;;;;;;5027627;28;20083;-72
2022/03/06 07:32:49;;;;;;;39.72;12.68;;;-2.70;99.90;;;;;;5017468;28;20036;-74
2022/03/06 07:35:16;;;;;;;43.45;14.68;;;-2.60;99.90;;;;;;5024237;28;20084;-71
2022/03/06 07:37:43;;;;;;;48.95;14.90;;;-2.40;99.90;;;;;;5025107;28;20068;-71
2022/03/06 07:40:11;;;;;;;60.25;19.00;;;-2.20;99.90;;;;;;5027697;28;20076;-73
2022/03/06 07:42:37;;;;;;;47.03;14.18;;;-2.00;99.90;;;;;;5025741;28;20178;-73
2022/03/06 07:45:03;;;;;;;40.33;13.48;;;-1.80;99.90;;;;;;5026295;28;20041;-67
2022/03/06 07:47:29;;;;;;;38.28;13.80;;;-1.50;99.90;;;;;;5028421;28;20033;-73
2022/03/06 07:49:55;;;;;;;46.03;15.02;;;-1.20;99.90;;;;;;5028676;28;20417;-72
2022/03/06 07:52:20;;;;;;;36.20;11.98;;;-1.00;99.90;;;;;;5027521;28;20037;-71
2022/03/06 07:54:46;;;;;;;33.25;11.65;;;-0.80;99.90;;;;;;5028008;28;20053;-73
2022/03/06 07:57:12;;;;;;;36.92;12.93;;;-0.60;99.90;;;;;;5025968;28;20029;-73
2022/03/06 07:59:37;;;;;;;35.40;12.80;;;-0.50;99.90;;;;;;5026412;28;20058;-72
2022/03/06 08:02:04;;;;;;;39.33;11.60;;;-0.30;99.90;;;;;;5027020;28;20041;-66
2022/03/06 08:04:29;;;;;;;33.08;11.98;;;-0.20;99.90;;;;;;5024948;28;20045;-73
2022/03/06 08:06:55;;;;;;;38.47;12.82;;;0.00;99.90;;;;;;5029350;28;20045;-74
2022/03/06 08:09:24;;;;;;;35.35;11.70;;;0.00;99.90;;;;;;5027039;28;20397;-74
2022/03/06 08:11:49;;;;;;;37.10;12.68;;;0.10;99.90;;;;;;5027207;28;20079;-73
2022/03/06 08:14:15;;;;;;;34.65;12.30;;;0.10;99.90;;;;;;5030027;28;20494;-72
2022/03/06 08:16:41;;;;;;;40.13;13.23;;;0.20;99.90;;;;;;5027579;28;20112;-71
2022/03/06 08:19:06;;;;;;;35.45;12.35;;;0.30;99.90;;;;;;5026194;28;20112;-67
2022/03/06 08:21:32;;;;;;;37.45;11.80;;;0.30;99.90;;;;;;5025791;28;20064;-70
2022/03/06 08:23:58;;;;;;;37.00;12.63;;;0.50;99.90;;;;;;5029635;28;20081;-71
2022/03/06 08:26:23;;;;;;;33.38;12.38;;;0.60;99.90;;;;;;5029027;28;20064;-70
2022/03/06 08:28:50;;;;;;;36.65;12.40;;;0.60;99.90;;;;;;5029286;28;20038;-71
2022/03/06 08:31:15;;;;;;;33.83;11.93;;;0.60;99.90;;;;;;5028482;28;20057;-70
2022/03/06 08:33:41;;;;;;;34.25;12.07;;;0.70;99.90;;;;;;5029141;28;20053;-70
2022/03/06 08:36:07;;;;;;;35.75;11.48;;;0.80;99.90;;;;;;5046926;28;20041;-66
2022/03/06 08:38:33;;;;;;;30.73;11.90;;;1.00;99.90;;;;;;5049568;28;20091;-69
2022/03/06 08:40:59;;;;;;;34.78;12.35;;;1.20;99.90;;;;;;5048594;28;20029;-68
2022/03/06 08:43:25;;;;;;;32.13;12.43;;;1.40;99.90;;;;;;5047790;28;20100;-69
2022/03/06 08:45:50;;;;;;;36.97;13.18;;;1.60;99.90;;;;;;5048925;28;20039;-69
2022/03/06 08:48:16;;;;;;;36.47;12.50;;;1.70;99.90;;;;;;5048363;28;20021;-70
2022/03/06 08:50:42;;;;;;;33.45;12.60;;;1.90;99.90;;;;;;5031460;28;20546;-69
2022/03/06 08:53:08;;;;;;;32.92;11.65;;;2.00;99.90;;;;;;5028318;28;20779;-65
2022/03/06 08:55:34;;;;;;;32.08;11.07;;;2.20;99.90;;;;;;5028784;28;20112;-69
2022/03/06 08:57:59;;;;;;;32.03;12.00;;;2.40;99.90;;;;;;5029187;28;20116;-69
2022/03/06 09:00:25;;;;;;;30.95;11.07;;;2.50;99.90;;;;;;5028620;28;20462;-69
2022/03/06 09:02:51;;;;;;;33.65;12.23;;;2.50;99.90;;;;;;5029029;28;20080;-69
2022/03/06 09:05:19;;;;;;;30.60;12.35;;;2.60;99.90;;;;;;5024046;28;20014;-70
2022/03/06 09:07:44;;;;;;;38.47;13.13;;;2.50;99.90;;;;;;5026793;28;20509;-70
2022/03/06 09:10:10;;;;;;;34.58;11.80;;;2.50;99.90;;;;;;5029401;28;20041;-69
2022/03/06 09:12:36;;;;;;;35.72;12.75;;;2.50;99.90;;;;;;5022278;28;20053;-69
2022/03/06 09:15:01;;;;;;;34.80;12.70;;;2.80;99.90;;;;;;5023706;28;20030;-70
2022/03/06 09:17:27;;;;;;;30.95;11.75;;;2.70;99.90;;;;;;5025957;28;20057;-70
2022/03/06 09:19:53;;;;;;;39.58;14.05;;;3.00;99.90;;;;;;5034841;28;20029;-70
2022/03/06 09:22:18;;;;;;;29.88;12.10;;;3.00;99.90;;;;;;5029578;28;20448;-68
2022/03/06 09:24:44;;;;;;;32.10;12.32;;;3.00;99.90;;;;;;5028401;28;20041;-70
2022/03/06 09:27:10;;;;;;;32.63;12.05;;;3.00;99.90;;;;;;5023349;28;20042;-65
2022/03/06 09:29:35;;;;;;;31.77;12.45;;;3.20;99.90;;;;;;5018727;28;20026;-68
2022/03/06 09:32:01;;;;;;;30.88;11.90;;;3.30;99.90;;;;;;5020313;28;20040;-69
2022/03/06 09:34:27;;;;;;;27.95;10.98;;;3.60;99.90;;;;;;5011428;28;20459;-69
2022/03/06 09:36:53;;;;;;;35.83;12.30;;;3.80;99.90;;;;;;5016708;28;20049;-67
2022/03/06 09:39:18;;;;;;;27.42;11.63;;;3.70;99.90;;;;;;5020877;28;20033;-68
2022/03/06 09:41:48;;;;;;;32.65;11.70;;;3.70;99.90;;;;;;5017908;28;20033;-71
2022/03/06 09:44:13;;;;;;;32.85;10.95;;;3.80;99.90;;;;;;5023269;28;20032;-70
2022/03/06 09:46:40;;;;;;;31.63;11.35;;;3.70;99.90;;;;;;5022736;28;20036;-74
2022/03/06 09:49:07;;;;;;;30.45;11.40;;;3.70;99.90;;;;;;5030126;28;20435;-71
2022/03/06 09:51:38;;;;;;;26.27;10.32;;;3.80;99.70;;;;;;5023377;28;20036;-71
2022/03/06 09:54:05;;;;;;;25.35;9.98;;;3.90;98.80;;;;;;5043869;28;20505;-70
2022/03/06 09:56:31;;;;;;;24.67;9.75;;;3.90;98.30;;;;;;5030568;28;20025;-65
2022/03/06 09:58:57;;;;;;;26.63;9.48;;;4.00;95.60;;;;;;5030632;28;20033;-69
2022/03/06 10:01:23;;;;;;;26.67;9.93;;;4.00;93.60;;;;;;5028227;28;20434;-67
2022/03/06 10:03:48;;;;;;;27.55;10.70;;;3.90;93.10;;;;;;5030037;28;20130;-69
2022/03/06 10:06:14;;;;;;;23.90;9.10;;;3.70;94.40;;;;;;5040614;28;20045;-65
2022/03/06 10:08:40;;;;;;;25.55;9.95;;;3.70;95.10;;;;;;5029276;28;20033;-72
2022/03/06 10:11:12;;;;;;;26.23;10.25;;;3.80;94.70;;;;;;5028523;28;20039;-70
2022/03/06 10:13:43;;;;;;;24.25;9.02;;;3.80;93.60;;;;;;5029449;28;20033;-70
2022/03/06 10:16:18;;;;;;;27.92;10.07;;;3.50;92.50;;;;;;5029889;28;20112;-72
2022/03/06 10:18:49;;;;;;;29.30;9.63;;;3.30;93.10;;;;;;5036320;28;20056;-67
2022/03/06 10:21:22;;;;;;;26.17;9.32;;;3.10;93.40;;;;;;5028472;28;20027;-65
2022/03/06 10:23:51;;;;;;;26.48;9.80;;;3.00;92.80;;;;;;5015458;28;20144;-69
2022/03/06 10:26:22;;;;;;;24.40;9.38;;;3.00;93.30;;;;;;5030863;28;20439;-67
2022/03/06 10:28:51;;;;;;;31.45;10.23;;;3.00;93.00;;;;;;5025068;28;20033;-68
2022/03/06 10:31:18;;;;;;;24.75;10.00;;;3.20;92.10;;;;;;5018705;28;20061;-64
2022/03/06 10:33:56;;;;;;;28.70;10.27;;;3.40;91.50;;;;;;5015152;28;20096;-71
2022/03/06 10:36:41;;;;;;;32.45;11.10;;;3.30;90.60;;;;;;5013669;28;20030;-69
2022/03/06 10:39:20;;;;;;;26.85;9.75;;;3.30;92.00;;;;;;5010102;28;20117;-67
2022/03/06 10:41:51;;;;;;;30.85;10.38;;;3.30;90.00;;;;;;5010389;28;20109;-70
2022/03/06 10:44:17;;;;;;;;;;;3.30;91.40;;;;;;5030824;28;20044;-64
2022/03/06 10:46:56;;;;;;;25.42;9.70;;;3.40;92.90;;;;;;5026657;28;19909;-69
2022/03/06 10:49:22;;;;;;;28.23;9.90;;;3.50;92.70;;;;;;5030203;28;20037;-72
2022/03/06 10:51:52;;;;;;;28.15;10.40;;;3.90;93.30;;;;;;5012553;28;20037;-68
2022/03/06 10:54:19;;;;;;;34.03;10.88;;;4.20;90.90;;;;;;5019022;28;20037;-65
2022/03/06 10:56:49;;;;;;;24.52;9.63;;;4.30;91.70;;;;;;5021385;28;20422;-69
2022/03/06 10:59:26;;;;;;;24.58;9.80;;;4.30;86.50;;;;;;5026187;28;20397;-65
2022/03/06 11:01:51;;;;;;;28.88;10.60;;;4.00;87.40;;;;;;5020488;28;20092;-71
2022/03/06 11:04:19;;;;;;;26.75;9.75;;;4.00;90.10;;;;;;5026680;28;20128;-66
2022/03/06 11:06:47;;;;;;;26.75;10.70;;;4.00;86.50;;;;;;5015506;28;20048;-73
2022/03/06 11:09:15;;;;;;;23.38;9.88;;;4.00;90.10;;;;;;5011395;28;20034;-70
2022/03/06 11:11:46;;;;;;;24.02;10.23;;;4.20;87.70;;;;;;5028155;28;20045;-71
2022/03/06 11:14:13;;;;;;;25.88;9.88;;;4.30;85.70;;;;;;5054123;28;20593;-73
2022/03/06 11:16:40;;;;;;;24.55;10.43;;;4.30;82.80;;;;;;5025748;28;20057;-72
2022/03/06 11:19:07;;;;;;;27.20;10.68;;;4.20;83.60;;;;;;5029038;28;20044;-70
2022/03/06 11:21:38;;;;;;;25.92;9.82;;;4.20;82.70;;;;;;5026513;28;20065;-71
2022/03/06 11:24:21;;;;;;;25.73;9.80;;;4.10;82.30;;;;;;5024568;28;20056;-69
2022/03/06 11:27:02;;;;;;;22.23;10.20;;;4.10;83.20;;;;;;5020499;28;20041;-70
2022/03/06 11:30:00;;;;;;;31.15;9.85;;;4.30;85.00;;;;;;5028063;28;20560;-69
2022/03/06 11:32:29;;;;;;;28.23;9.75;;;4.40;83.70;;;;;;5013408;28;20029;-66
2022/03/06 11:35:12;;;;;;;22.73;9.20;;;4.40;78.30;;;;;;5017726;28;20030;-67
2022/03/06 11:37:52;;;;;;;23.25;9.32;;;4.50;77.50;;;;;;5019939;28;20391;-68
2022/03/06 11:40:40;;;;;;;;;;;4.70;78.70;;;;;;5017319;28;20033;-69
2022/03/06 11:43:09;;;;;;;27.35;10.23;;;5.10;78.10;;;;;;5018910;28;20026;-70
2022/03/06 11:45:50;;;;;;;24.52;9.65;;;5.20;78.10;;;;;;5030104;28;20111;-67
2022/03/06 11:48:34;;;;;;;24.30;10.05;;;5.00;74.70;;;;;;5033739;28;20459;-69
2022/03/06 11:51:25;;;;;;;28.73;9.95;;;4.80;75.20;;;;;;5025876;28;20358;-67
2022/03/06 11:54:03;;;;;;;24.13;9.30;;;4.80;76.60;;;;;;5029817;28;20099;-69
2022/03/06 11:56:34;;;;;;;27.05;11.10;;;4.80;75.20;;;;;;5021377;28;20393;-69
2022/03/06 11:59:10;;;;;;;25.33;10.32;;;4.70;77.10;;;;;;5018754;28;20128;-69
2022/03/06 12:01:38;;;;;;;28.63;10.27;;;4.50;78.20;;;;;;5018149;28;20030;-67
2022/03/06 12:04:07;;;;;;;27.70;10.13;;;4.40;78.00;;;;;;5014898;28;20087;-69
2022/03/06 12:06:41;;;;;;;24.60;10.18;;;4.30;78.60;;;;;;5021767;28;20057;-69
2022/03/06 12:09:27;;;;;;;24.27;9.90;;;4.30;78.10;;;;;;5028207;28;20037;-68
2022/03/06 12:11:57;;;;;;;31.52;11.90;;;4.20;78.60;;;;;;5029745;28;20056;-71
2022/03/06 12:14:35;;;;;;;36.30;13.63;;;4.20;79.70;;;;;;5024407;28;20029;-66
2022/03/06 12:17:04;;;;;;;32.72;12.88;;;4.10;80.10;;;;;;5034845;28;20041;-71
2022/03/06 12:19:45;;;;;;;29.38;11.25;;;4.10;80.10;;;;;;5024127;28;20033;-65
2022/03/06 12:22:20;;;;;;;;;;;4.00;79.60;;;;;;5018927;28;20042;-68
2022/03/06 12:25:10;;;;;;;27.80;10.40;;;4.00;80.20;;;;;;5013673;28;19970;-66
2022/03/06 12:27:37;;;;;;;28.75;11.27;;;4.00;79.40;;;;;;5022911;28;20038;-69
2022/03/06 12:30:07;;;;;;;29.73;12.63;;;4.00;81.10;;;;;;5013532;28;20150;-66
2022/03/06 12:32:38;;;;;;;31.13;12.25;;;3.90;83.30;;;;;;5017963;28;20113;-64
2022/03/06 12:35:17;;;;;;;25.05;9.48;;;3.90;83.50;;;;;;5025384;28;20043;-64